Аэропорт: Байкал. Улан-Удэ

ICAO: UIUU

METAR:
2019-09-16 01:30:00
UIUU 160130Z 00000MPS 9999 NSC 09/04 Q1013 R26/CLRD60 NOSIG RMK QFE716/0954
METAR:
2019-09-15 23:00:00
TAF UIUU 152300Z 1600/1624 32003G08MPS 9999 SCT030CB TEMPO 1603/1618 34008G13MPS -SHRA OVC014CB